Time;durP1;ratioP1;P1;durP2;ratioP2;P2;SDS_P1;SDS_P2;PMS_P1;PMS_P2;Temp;Humidity;BMP_temperature;BMP_pressure;BME280_temperature;BME280_humidity;BME280_pressure;Samples;Min_cycle;Max_cycle;Signal;HPM_P1;HPM_P2
2023/03/24 00:01:17;;;;;;;2.42;1.00;;;17.10;59.20;;;;;;5054649;28;20186;-59
2023/03/24 00:03:47;;;;;;;2.40;1.60;;;17.10;59.20;;;;;;5054927;28;20171;-59
2023/03/24 00:06:13;;;;;;;1.58;1.23;;;17.10;59.80;;;;;;5054444;28;20171;-59
2023/03/24 00:08:40;;;;;;;1.60;1.17;;;17.10;59.20;;;;;;5055073;28;20171;-59
2023/03/24 00:11:07;;;;;;;1.70;1.40;;;17.10;59.20;;;;;;5054590;28;20234;-57
2023/03/24 00:13:37;;;;;;;2.17;1.27;;;17.10;59.20;;;;;;5054013;28;20179;-59
2023/03/24 00:16:12;;;;;;;3.53;1.30;;;17.10;59.20;;;;;;5054716;28;20183;-59
2023/03/24 00:18:38;;;;;;;1.40;1.20;;;17.10;59.20;;;;;;5054777;28;20174;-59
2023/03/24 00:21:04;;;;;;;1.05;0.95;;;17.10;59.20;;;;;;5053749;28;20179;-59
2023/03/24 00:23:32;;;;;;;2.50;1.20;;;17.10;59.20;;;;;;5054658;28;20210;-57
2023/03/24 00:26:14;;;;;;;4.50;1.55;;;17.10;59.20;;;;;;5054298;28;20209;-59
2023/03/24 00:28:41;;;;;;;1.58;1.15;;;17.10;59.30;;;;;;5054045;28;20201;-57
2023/03/24 00:31:07;;;;;;;1.83;1.25;;;17.10;59.30;;;;;;5054581;28;20210;-59
2023/03/24 00:33:34;;;;;;;2.28;1.30;;;17.10;59.20;;;;;;5054745;28;20692;-59
2023/03/24 00:36:00;;;;;;;1.90;1.40;;;17.10;59.20;;;;;;5053369;28;20689;-59
2023/03/24 00:38:25;;;;;;;1.88;1.17;;;17.10;59.20;;;;;;5054325;28;20650;-59
2023/03/24 00:40:51;;;;;;;1.25;1.10;;;17.10;59.30;;;;;;5053920;28;20183;-59
2023/03/24 00:43:17;;;;;;;1.13;1.00;;;17.00;59.20;;;;;;5053569;28;20220;-59
2023/03/24 00:45:44;;;;;;;2.53;1.17;;;17.00;59.20;;;;;;5052863;28;20182;-59
2023/03/24 00:48:11;;;;;;;1.80;1.38;;;17.00;59.20;;;;;;5053250;28;20175;-59
2023/03/24 00:50:36;;;;;;;3.05;1.40;;;17.00;59.30;;;;;;5053606;28;20225;-59
2023/03/24 00:53:02;;;;;;;1.45;1.23;;;17.00;59.30;;;;;;5053799;28;20167;-58
2023/03/24 00:55:27;;;;;;;1.20;1.10;;;17.00;59.30;;;;;;5053451;28;20179;-58
2023/03/24 00:57:53;;;;;;;1.17;1.02;;;17.00;59.30;;;;;;5053964;28;20168;-58
2023/03/24 01:00:23;;;;;;;1.65;1.20;;;17.10;59.30;;;;;;5054383;28;20263;-59
2023/03/24 01:02:52;;;;;;;2.13;1.23;;;17.00;59.30;;;;;;5053003;28;20246;-59
2023/03/24 01:05:22;;;;;;;2.13;1.42;;;17.00;59.30;;;;;;5053809;28;20650;-57
2023/03/24 01:07:50;;;;;;;1.63;1.08;;;17.00;59.40;;;;;;5053395;28;20692;-57
2023/03/24 01:10:18;;;;;;;2.25;1.70;;;17.00;59.30;;;;;;5053209;28;20172;-58
2023/03/24 01:12:43;;;;;;;1.77;1.10;;;17.00;59.30;;;;;;5053296;28;20560;-58
2023/03/24 01:15:13;;;;;;;1.75;1.20;;;17.00;59.40;;;;;;5053712;28;20171;-59
2023/03/24 01:17:39;;;;;;;2.17;1.35;;;17.00;59.30;;;;;;5052998;28;20182;-58
2023/03/24 01:20:07;;;;;;;2.35;1.30;;;17.00;59.30;;;;;;5053055;28;20219;-58
2023/03/24 01:22:36;;;;;;;1.40;1.30;;;17.00;59.40;;;;;;5053726;28;20541;-58
2023/03/24 01:25:10;;;;;;;1.80;1.20;;;17.00;59.40;;;;;;5052622;28;20187;-59
2023/03/24 01:27:36;;;;;;;1.70;1.25;;;17.00;59.40;;;;;;5053388;28;20175;-58
2023/03/24 01:30:03;;;;;;;1.23;1.10;;;17.00;59.40;;;;;;5053111;28;20217;-58
2023/03/24 01:32:29;;;;;;;1.73;1.40;;;16.90;59.40;;;;;;5052542;28;20226;-58
2023/03/24 01:34:54;;;;;;;1.33;1.10;;;16.90;59.40;;;;;;5052820;28;20177;-59
2023/03/24 01:37:22;;;;;;;1.58;1.20;;;16.90;59.40;;;;;;5052491;28;20265;-59
2023/03/24 01:39:48;;;;;;;1.15;1.05;;;16.90;59.40;;;;;;5053049;28;20198;-59
2023/03/24 01:42:19;;;;;;;1.63;1.00;;;16.90;59.40;;;;;;5053344;28;20182;-58
2023/03/24 01:44:46;;;;;;;1.23;0.98;;;16.90;59.50;;;;;;5052128;28;20179;-59
2023/03/24 01:47:12;;;;;;;1.73;1.13;;;16.90;59.40;;;;;;5053018;28;20180;-58
2023/03/24 01:49:43;;;;;;;1.55;1.08;;;16.90;59.40;;;;;;5052696;28;20183;-58
2023/03/24 01:52:13;;;;;;;1.30;1.02;;;16.90;59.40;;;;;;5050817;28;20215;-59
2023/03/24 01:54:45;;;;;;;1.50;1.30;;;16.90;59.40;;;;;;5051521;28;20618;-58
2023/03/24 01:57:35;;;;;;;1.58;1.33;;;16.90;59.50;;;;;;5051517;28;20190;-59
2023/03/24 02:00:03;;;;;;;2.30;1.30;;;16.90;59.50;;;;;;5050017;28;20262;-59
2023/03/24 02:02:34;;;;;;;1.80;1.17;;;16.90;59.50;;;;;;5051316;28;20254;-59
2023/03/24 02:05:02;;;;;;;1.30;1.15;;;16.90;59.40;;;;;;5051422;28;20258;-59
2023/03/24 02:08:02;;;;;;;1.05;0.93;;;16.90;59.50;;;;;;5052067;28;20207;-59
2023/03/24 02:10:29;;;;;;;1.17;1.10;;;16.90;59.50;;;;;;5052511;28;20175;-56
2023/03/24 02:12:55;;;;;;;1.23;1.00;;;16.90;59.50;;;;;;5050568;28;20179;-58
2023/03/24 02:15:20;;;;;;;1.88;1.38;;;16.90;59.50;;;;;;5052492;28;20197;-59
2023/03/24 02:17:53;;;;;;;2.00;1.30;;;16.90;59.50;;;;;;5051097;28;20171;-59
2023/03/24 02:20:18;;;;;;;1.48;1.30;;;16.90;59.60;;;;;;5051417;28;20685;-59
2023/03/24 02:23:02;;;;;;;1.42;1.10;;;16.90;59.60;;;;;;5052130;28;20182;-57
2023/03/24 02:25:57;;;;;;;1.25;1.17;;;16.90;59.60;;;;;;5051090;28;20258;-58
2023/03/24 02:28:35;;;;;;;1.17;1.08;;;16.90;59.70;;;;;;5041639;28;20274;-56
2023/03/24 02:31:51;;;;;;;1.70;1.30;;;16.90;59.60;;;;;;5051369;28;20213;-57
2023/03/24 02:34:20;;;;;;;1.40;1.30;;;16.90;59.60;;;;;;5042958;28;20197;-58
2023/03/24 02:37:20;;;;;;;1.30;1.20;;;16.90;59.60;;;;;;5052596;28;20261;-58
2023/03/24 02:39:49;;;;;;;1.25;1.15;;;16.80;59.60;;;;;;5051550;28;20187;-59
2023/03/24 02:42:36;;;;;;;1.60;1.30;;;16.80;59.70;;;;;;5052208;28;20178;-59
2023/03/24 02:45:12;;;;;;;1.83;1.20;;;16.80;59.70;;;;;;5051316;28;20183;-59
2023/03/24 02:48:13;;;;;;;1.65;1.42;;;16.80;59.80;;;;;;5051398;28;20201;-59
2023/03/24 02:51:03;;;;;;;1.42;1.30;;;16.80;59.70;;;;;;5051556;28;20175;-57
2023/03/24 02:54:06;;;;;;;2.22;1.50;;;16.90;59.80;;;;;;5051758;28;20179;-57
2023/03/24 02:56:36;;;;;;;0.98;0.93;;;16.80;59.80;;;;;;5051862;28;20725;-58
2023/03/24 02:59:06;;;;;;;1.55;1.45;;;16.80;59.80;;;;;;5052568;28;20198;-58
2023/03/24 03:01:39;;;;;;;1.98;1.50;;;16.80;59.70;;;;;;5051599;28;20213;-59
2023/03/24 03:04:16;;;;;;;2.22;1.10;;;16.80;59.70;;;;;;5050536;28;20179;-59
2023/03/24 03:06:43;;;;;;;1.20;1.13;;;16.80;59.70;;;;;;5051053;28;20175;-58
2023/03/24 03:09:11;;;;;;;1.67;1.23;;;16.80;59.80;;;;;;5050572;28;20692;-58
2023/03/24 03:11:38;;;;;;;1.98;1.30;;;16.80;59.80;;;;;;5051952;28;20226;-55
2023/03/24 03:14:12;;;;;;;1.13;1.00;;;16.80;59.80;;;;;;5055268;28;20578;-57
2023/03/24 03:16:52;;;;;;;1.42;1.27;;;16.80;59.90;;;;;;5054595;28;20179;-58
2023/03/24 03:19:39;;;;;;;1.80;1.40;;;16.80;59.80;;;;;;5055122;28;20296;-58
2023/03/24 03:22:07;;;;;;;1.05;1.05;;;16.80;59.80;;;;;;5056219;28;20205;-58
2023/03/24 03:24:36;;;;;;;1.65;1.17;;;16.80;59.80;;;;;;5054391;28;20233;-58
2023/03/24 03:27:13;;;;;;;1.05;0.90;;;16.80;59.90;;;;;;5054733;28;20187;-58
2023/03/24 03:29:40;;;;;;;1.20;1.10;;;16.80;59.90;;;;;;5055021;28;20583;-58
2023/03/24 03:32:08;;;;;;;1.30;1.20;;;16.80;59.90;;;;;;5054126;28;20219;-58
2023/03/24 03:34:48;;;;;;;1.42;1.33;;;16.70;59.80;;;;;;5056129;28;20591;-59
2023/03/24 03:37:35;;;;;;;1.58;1.10;;;16.80;59.90;;;;;;5054409;28;20344;-59
2023/03/24 03:40:13;;;;;;;1.10;1.00;;;16.70;59.80;;;;;;5054214;28;20187;-58
2023/03/24 03:42:39;;;;;;;2.08;1.00;;;16.80;59.90;;;;;;5054979;28;20228;-58
2023/03/24 03:45:07;;;;;;;2.10;1.20;;;16.80;59.90;;;;;;5054045;28;20183;-58
2023/03/24 03:47:32;;;;;;;0.90;0.90;;;16.80;59.80;;;;;;5054919;28;20247;-59
2023/03/24 03:49:58;;;;;;;1.42;1.08;;;16.80;59.90;;;;;;5055662;28;20258;-59
2023/03/24 03:52:23;;;;;;;1.00;0.90;;;16.80;59.90;;;;;;5055111;28;20245;-58
2023/03/24 03:54:49;;;;;;;1.92;1.20;;;16.80;59.80;;;;;;5055620;28;20171;-58
2023/03/24 03:57:14;;;;;;;1.20;1.02;;;16.80;59.90;;;;;;5055893;28;20535;-59
2023/03/24 03:59:40;;;;;;;1.02;1.02;;;16.80;59.80;;;;;;5054206;28;20178;-59
2023/03/24 04:02:25;;;;;;;1.63;1.27;;;16.70;59.80;;;;;;5055315;28;20218;-59
2023/03/24 04:05:08;;;;;;;1.27;1.13;;;16.80;59.80;;;;;;5055269;28;20229;-59
2023/03/24 04:07:41;;;;;;;1.30;1.20;;;16.70;59.80;;;;;;5054500;28;20266;-57
2023/03/24 04:10:27;;;;;;;1.17;1.08;;;16.70;60.50;;;;;;5054419;28;20176;-57
2023/03/24 04:13:02;;;;;;;1.05;0.95;;;16.70;59.90;;;;;;5043229;28;20195;-56
2023/03/24 04:15:36;;;;;;;1.73;0.90;;;16.70;59.80;;;;;;5054232;28;20179;-58
2023/03/24 04:18:20;;;;;;;1.20;1.10;;;16.70;59.80;;;;;;5055002;28;20202;-58
2023/03/24 04:21:08;;;;;;;2.17;1.23;;;16.70;59.70;;;;;;5054116;28;20305;-59
2023/03/24 04:23:48;;;;;;;0.80;0.80;;;16.70;59.70;;;;;;5046292;28;20199;-58
2023/03/24 04:26:27;;;;;;;1.33;0.93;;;16.70;59.80;;;;;;5053339;28;20704;-56
2023/03/24 04:29:00;;;;;;;1.58;1.00;;;16.70;59.80;;;;;;5053757;28;20187;-58
2023/03/24 04:31:29;;;;;;;1.55;1.02;;;16.70;59.80;;;;;;5053948;28;20732;-58
2023/03/24 04:33:57;;;;;;;1.20;0.80;;;16.70;59.80;;;;;;5054110;28;20171;-58
2023/03/24 04:36:41;;;;;;;1.85;0.82;;;16.70;59.70;;;;;;5053685;28;20555;-59
2023/03/24 04:39:12;;;;;;;1.75;1.17;;;16.70;59.80;;;;;;5054966;28;20187;-57
2023/03/24 04:41:37;;;;;;;1.33;0.90;;;16.70;60.40;;;;;;5037081;28;20233;-57
2023/03/24 04:44:03;;;;;;;2.08;1.05;;;16.70;59.70;;;;;;5036772;28;20167;-58
2023/03/24 04:46:29;;;;;;;1.25;1.10;;;16.70;59.70;;;;;;5054530;28;20167;-57
2023/03/24 04:48:54;;;;;;;1.35;1.00;;;16.70;59.80;;;;;;5035986;28;20171;-57
2023/03/24 04:51:20;;;;;;;1.38;1.20;;;16.70;59.70;;;;;;5053119;28;20237;-57
2023/03/24 04:53:46;;;;;;;1.90;1.20;;;16.70;59.60;;;;;;5053175;28;20270;-56
2023/03/24 04:56:35;;;;;;;2.03;0.90;;;16.60;59.60;;;;;;5053808;28;20282;-57
2023/03/24 04:59:01;;;;;;;1.60;0.90;;;16.60;59.60;;;;;;5052877;28;20660;-57
2023/03/24 05:01:29;;;;;;;1.15;1.05;;;16.60;59.60;;;;;;5053713;28;20175;-57
2023/03/24 05:03:55;;;;;;;1.15;0.80;;;16.60;59.70;;;;;;5054053;28;20190;-57
2023/03/24 05:06:21;;;;;;;3.42;1.20;;;16.60;59.80;;;;;;5054547;28;20179;-57
2023/03/24 05:08:46;;;;;;;1.35;1.00;;;16.60;59.60;;;;;;5053322;28;20262;-57
2023/03/24 05:11:12;;;;;;;1.83;0.70;;;16.70;59.60;;;;;;5054121;28;20289;-55
2023/03/24 05:13:37;;;;;;;2.35;0.90;;;16.60;59.70;;;;;;5054127;28;20183;-57
2023/03/24 05:16:03;;;;;;;2.10;1.23;;;16.60;59.60;;;;;;5053338;28;20171;-58
2023/03/24 05:18:29;;;;;;;1.17;1.00;;;16.60;59.60;;;;;;5054241;28;20179;-57
2023/03/24 05:20:54;;;;;;;1.60;0.98;;;16.60;59.70;;;;;;5053668;28;20654;-58
2023/03/24 05:23:20;;;;;;;2.28;1.10;;;16.60;59.60;;;;;;5053155;28;20171;-57
2023/03/24 05:25:46;;;;;;;1.88;1.20;;;16.60;59.80;;;;;;5053760;28;20262;-57
2023/03/24 05:28:12;;;;;;;1.55;1.30;;;16.60;59.60;;;;;;5053883;28;20175;-56
2023/03/24 05:30:37;;;;;;;2.63;1.15;;;16.60;59.80;;;;;;5053242;28;20262;-57
2023/03/24 05:33:03;;;;;;;2.38;1.50;;;16.60;60.20;;;;;;5053749;28;20262;-58
2023/03/24 05:35:29;;;;;;;3.05;1.27;;;16.60;59.50;;;;;;5053468;28;20172;-57
2023/03/24 05:37:54;;;;;;;2.53;0.93;;;16.60;60.00;;;;;;5052656;28;20258;-59
2023/03/24 05:40:20;;;;;;;1.65;0.88;;;16.50;59.60;;;;;;5053631;28;20714;-59
2023/03/24 05:42:48;;;;;;;1.73;0.98;;;16.60;59.60;;;;;;5053179;28;20654;-60
2023/03/24 05:45:16;;;;;;;2.40;1.20;;;16.60;59.70;;;;;;5052871;28;20171;-59
2023/03/24 05:47:42;;;;;;;2.22;1.20;;;16.60;59.40;;;;;;5053420;28;20175;-59
2023/03/24 05:50:07;;;;;;;1.65;1.15;;;16.60;59.40;;;;;;5053546;28;20178;-59
2023/03/24 05:52:34;;;;;;;2.92;1.15;;;16.60;59.50;;;;;;5052809;28;20211;-58
2023/03/24 05:55:00;;;;;;;3.67;1.15;;;16.60;59.70;;;;;;5053271;28;20175;-59
2023/03/24 05:57:29;;;;;;;3.00;1.23;;;16.60;59.40;;;;;;5053441;28;20251;-59
2023/03/24 05:59:55;;;;;;;1.67;1.40;;;16.60;59.80;;;;;;5052529;28;20187;-59
2023/03/24 06:02:21;;;;;;;1.83;1.02;;;16.60;59.90;;;;;;5053361;28;20581;-59
2023/03/24 06:04:47;;;;;;;2.78;1.00;;;16.50;59.50;;;;;;5052308;28;20645;-59
2023/03/24 06:07:16;;;;;;;1.70;1.40;;;16.60;59.80;;;;;;5053341;28;20634;-57
2023/03/24 06:09:45;;;;;;;0.90;0.90;;;16.50;59.70;;;;;;5052942;28;20172;-56
2023/03/24 06:12:11;;;;;;;1.90;1.20;;;16.50;59.60;;;;;;5052470;28;20215;-57
2023/03/24 06:14:37;;;;;;;2.97;1.40;;;16.60;59.40;;;;;;5053191;28;20182;-58
2023/03/24 06:17:03;;;;;;;1.98;1.20;;;16.50;59.60;;;;;;5052884;28;20203;-58
2023/03/24 06:19:31;;;;;;;2.38;1.00;;;16.50;59.40;;;;;;5052250;28;20222;-58
2023/03/24 06:21:59;;;;;;;1.50;1.00;;;16.50;59.70;;;;;;5052515;28;20646;-57
2023/03/24 06:24:25;;;;;;;3.33;1.30;;;16.50;59.50;;;;;;5052799;28;20585;-56
2023/03/24 06:27:01;;;;;;;3.28;1.60;;;16.50;59.60;;;;;;5051972;28;20179;-57
2023/03/24 06:29:28;;;;;;;2.15;1.30;;;16.50;59.40;;;;;;5053002;28;20171;-56
2023/03/24 06:31:53;;;;;;;3.28;1.20;;;16.50;59.60;;;;;;5052402;28;20682;-57
2023/03/24 06:34:21;;;;;;;3.13;1.17;;;16.50;60.00;;;;;;5052002;28;20221;-57
2023/03/24 06:36:46;;;;;;;2.15;1.13;;;16.50;59.90;;;;;;5052666;28;20175;-58
2023/03/24 06:39:12;;;;;;;3.03;1.38;;;16.50;59.40;;;;;;5052609;28;20229;-58
2023/03/24 06:41:38;;;;;;;3.28;1.20;;;16.50;59.40;;;;;;5051884;28;20183;-58
2023/03/24 06:44:03;;;;;;;2.67;1.20;;;16.50;59.40;;;;;;5052502;28;20197;-58
2023/03/24 06:46:29;;;;;;;3.33;1.45;;;16.50;59.40;;;;;;5051848;28;20598;-58
2023/03/24 06:48:54;;;;;;;1.60;1.13;;;16.50;59.30;;;;;;5051336;28;20171;-58
2023/03/24 06:51:20;;;;;;;2.55;1.40;;;16.50;59.80;;;;;;5052114;28;20207;-57
2023/03/24 06:53:45;;;;;;;1.30;1.15;;;16.50;59.30;;;;;;5051847;28;20198;-57
2023/03/24 06:56:16;;;;;;;1.80;1.25;;;16.50;60.10;;;;;;5051579;28;20182;-57
2023/03/24 06:58:42;;;;;;;2.78;1.33;;;16.50;59.30;;;;;;5052062;28;20175;-59
2023/03/24 07:01:08;;;;;;;16.40;1.52;;;16.50;59.30;;;;;;5051686;28;20179;-58
2023/03/24 07:03:34;;;;;;;3.30;1.20;;;16.50;59.80;;;;;;5052412;28;20172;-59
2023/03/24 07:05:59;;;;;;;2.38;1.63;;;16.50;60.10;;;;;;5051894;28;20196;-58
2023/03/24 07:08:25;;;;;;;2.95;1.40;;;16.50;59.40;;;;;;5051736;28;20286;-58
2023/03/24 07:10:50;;;;;;;2.95;1.52;;;16.60;59.20;;;;;;5051974;28;20191;-57
2023/03/24 07:13:16;;;;;;;2.70;1.40;;;16.60;59.20;;;;;;5052226;28;20175;-57
2023/03/24 07:15:41;;;;;;;2.35;1.40;;;16.60;59.10;;;;;;5051202;28;20167;-58
2023/03/24 07:18:07;;;;;;;1.80;1.20;;;16.60;59.10;;;;;;5052111;28;20179;-58
2023/03/24 07:20:32;;;;;;;2.88;1.45;;;16.60;59.00;;;;;;5051928;28;20231;-56
2023/03/24 07:22:58;;;;;;;3.38;1.75;;;16.60;59.10;;;;;;5051096;28;20171;-56
2023/03/24 07:25:24;;;;;;;3.42;1.38;;;16.60;59.00;;;;;;5052162;28;20261;-58
2023/03/24 07:27:53;;;;;;;3.40;1.42;;;16.60;59.00;;;;;;5051921;28;20562;-57
2023/03/24 07:30:18;;;;;;;4.88;1.95;;;16.60;59.00;;;;;;5051407;28;20194;-58
2023/03/24 07:32:44;;;;;;;4.22;1.48;;;16.60;58.90;;;;;;5051613;28;20215;-57
2023/03/24 07:35:10;;;;;;;2.10;1.30;;;16.60;59.10;;;;;;5051913;28;20172;-58
2023/03/24 07:37:36;;;;;;;2.20;1.75;;;16.60;59.40;;;;;;5051170;28;20187;-57
2023/03/24 07:40:10;;;;;;;2.80;1.13;;;16.60;59.30;;;;;;5051619;28;20213;-57
2023/03/24 07:42:37;;;;;;;2.70;1.27;;;16.60;59.80;;;;;;5052084;28;20199;-58
2023/03/24 07:45:07;;;;;;;2.20;1.40;;;16.60;59.50;;;;;;5050941;28;20171;-58
2023/03/24 07:47:33;;;;;;;2.20;1.15;;;16.60;59.30;;;;;;5051906;28;20171;-57
2023/03/24 07:49:59;;;;;;;3.65;1.67;;;16.60;59.10;;;;;;5051446;28;20661;-57
2023/03/24 07:52:24;;;;;;;2.50;1.40;;;16.60;59.20;;;;;;5051221;28;20211;-57
2023/03/24 07:54:50;;;;;;;2.80;1.40;;;16.70;59.40;;;;;;5051685;28;20575;-56
2023/03/24 07:57:16;;;;;;;3.72;1.52;;;16.60;59.50;;;;;;5051307;28;20666;-58
2023/03/24 07:59:41;;;;;;;2.38;1.30;;;16.60;59.40;;;;;;5053624;28;20171;-58
2023/03/24 08:02:18;;;;;;;2.42;1.45;;;16.60;59.60;;;;;;5055285;28;20178;-59
2023/03/24 08:04:44;;;;;;;2.40;1.35;;;16.60;59.70;;;;;;5054342;28;20171;-58
2023/03/24 08:07:11;;;;;;;2.72;1.63;;;16.60;59.70;;;;;;5055358;28;20171;-60
2023/03/24 08:09:40;;;;;;;3.05;1.40;;;16.70;59.50;;;;;;5054897;28;20179;-61
2023/03/24 08:12:05;;;;;;;6.75;1.75;;;16.80;59.00;;;;;;5053699;28;20696;-62
2023/03/24 08:14:31;;;;;;;2.80;1.70;;;16.90;58.70;;;;;;5054727;28;20175;-64
2023/03/24 08:16:56;;;;;;;3.55;1.83;;;16.90;58.50;;;;;;5054485;28;20179;-64
2023/03/24 08:19:22;;;;;;;3.00;1.23;;;17.00;58.80;;;;;;5054226;28;20273;-64
2023/03/24 08:21:47;;;;;;;5.00;1.98;;;17.10;58.50;;;;;;5054760;28;20187;-63
2023/03/24 08:24:13;;;;;;;2.20;1.60;;;17.10;58.50;;;;;;5054846;28;20202;-62
2023/03/24 08:26:39;;;;;;;4.60;1.63;;;17.10;58.40;;;;;;5054062;28;20206;-63
2023/03/24 08:29:04;;;;;;;2.22;1.27;;;17.20;58.30;;;;;;5054512;28;20194;-63
2023/03/24 08:31:31;;;;;;;3.67;1.35;;;17.10;58.20;;;;;;5054567;28;20261;-64
2023/03/24 08:33:57;;;;;;;4.13;1.60;;;17.20;58.20;;;;;;5053504;28;20217;-63
2023/03/24 08:36:25;;;;;;;3.58;1.50;;;17.30;58.30;;;;;;5054694;28;20202;-65
2023/03/24 08:38:53;;;;;;;2.95;1.52;;;17.20;58.30;;;;;;5054253;28;20175;-66
2023/03/24 08:41:19;;;;;;;5.07;1.85;;;17.20;58.60;;;;;;5053616;28;20236;-65
2023/03/24 08:43:45;;;;;;;2.85;1.48;;;17.20;58.40;;;;;;5054219;28;20700;-64
2023/03/24 08:46:10;;;;;;;5.70;2.17;;;17.30;58.60;;;;;;5054144;28;20175;-64
2023/03/24 08:48:38;;;;;;;4.57;1.60;;;17.20;58.50;;;;;;5053280;28;20168;-63
2023/03/24 08:51:14;;;;;;;2.55;1.33;;;17.20;58.60;;;;;;5061079;28;20191;-63
2023/03/24 08:53:40;;;;;;;2.60;2.00;;;17.30;58.50;;;;;;5064331;28;20183;-63
2023/03/24 08:56:06;;;;;;;4.22;1.42;;;17.30;58.40;;;;;;5053489;28;20171;-64
2023/03/24 08:58:31;;;;;;;6.00;1.80;;;17.30;58.50;;;;;;5067401;28;20244;-67
2023/03/24 09:00:57;;;;;;;3.70;1.90;;;17.30;58.40;;;;;;5073018;28;20253;-64
2023/03/24 09:03:22;;;;;;;3.22;1.52;;;17.40;58.40;;;;;;5073739;28;20178;-65
2023/03/24 09:05:48;;;;;;;4.28;2.03;;;17.40;58.40;;;;;;5069887;28;20171;-61
2023/03/24 09:08:15;;;;;;;5.32;1.60;;;17.40;58.40;;;;;;5053178;28;20232;-62
2023/03/24 09:10:41;;;;;;;3.92;1.80;;;17.50;58.30;;;;;;5053006;28;20191;-62
2023/03/24 09:13:06;;;;;;;4.57;1.60;;;17.50;58.20;;;;;;5053441;28;20179;-62
2023/03/24 09:15:32;;;;;;;4.50;1.80;;;17.50;58.20;;;;;;5053023;28;20262;-62
2023/03/24 09:17:57;;;;;;;5.97;2.30;;;17.50;58.30;;;;;;5053345;28;20229;-62
2023/03/24 09:20:23;;;;;;;6.32;2.35;;;17.50;58.20;;;;;;5053340;28;20249;-62
2023/03/24 09:22:48;;;;;;;3.72;1.85;;;17.60;58.20;;;;;;5055189;28;20169;-61
2023/03/24 09:25:15;;;;;;;4.78;1.90;;;17.60;58.20;;;;;;5073523;28;20188;-62
2023/03/24 09:27:41;;;;;;;3.97;1.75;;;17.70;58.20;;;;;;5073036;28;20175;-61
2023/03/24 09:30:08;;;;;;;4.95;1.80;;;17.70;58.00;;;;;;5072589;28;20582;-62
2023/03/24 09:32:33;;;;;;;5.13;1.75;;;17.80;58.00;;;;;;5073347;28;20233;-62
2023/03/24 09:34:59;;;;;;;3.63;1.80;;;17.80;57.90;;;;;;5072964;28;20645;-62
2023/03/24 09:37:28;;;;;;;5.70;1.85;;;17.80;58.10;;;;;;5072409;28;20193;-62
2023/03/24 09:39:54;;;;;;;5.53;1.80;;;17.70;58.30;;;;;;5072708;28;20235;-62
2023/03/24 09:42:22;;;;;;;6.47;2.10;;;17.70;58.40;;;;;;5072931;28;20225;-61
2023/03/24 09:44:58;;;;;;;4.20;2.25;;;17.60;58.30;;;;;;5071842;28;20701;-61
2023/03/24 09:47:26;;;;;;;3.67;1.83;;;17.60;58.30;;;;;;5051713;28;20186;-61
2023/03/24 09:49:52;;;;;;;3.50;1.40;;;17.60;58.20;;;;;;5051929;28;20258;-61
2023/03/24 09:52:23;;;;;;;5.10;2.03;;;17.60;58.20;;;;;;5051278;28;20340;-63
2023/03/24 09:54:57;;;;;;;1.80;1.30;;;17.70;58.40;;;;;;5051466;28;20175;-63
2023/03/24 09:57:28;;;;;;;2.47;1.73;;;17.70;58.30;;;;;;5058710;28;20179;-66
2023/03/24 09:59:54;;;;;;;3.85;1.70;;;17.70;58.70;;;;;;5072327;28;20177;-66
2023/03/24 10:02:20;;;;;;;3.58;1.65;;;17.70;58.30;;;;;;5072536;28;20175;-64
2023/03/24 10:04:46;;;;;;;4.95;1.98;;;17.80;58.10;;;;;;5070396;28;20181;-63
2023/03/24 10:07:39;;;;;;;4.65;2.15;;;17.90;57.90;;;;;;5072859;28;20755;-63
2023/03/24 10:10:20;;;;;;;4.30;1.92;;;17.90;57.90;;;;;;5071088;28;20170;-63
2023/03/24 10:12:47;;;;;;;4.82;1.85;;;17.80;58.10;;;;;;5070159;28;20720;-64
2023/03/24 10:15:19;;;;;;;4.85;1.67;;;17.80;58.30;;;;;;5058204;28;20262;-63
2023/03/24 10:17:58;;;;;;;2.67;1.70;;;17.80;58.40;;;;;;5048645;28;20185;-65
2023/03/24 10:20:45;;;;;;;2.30;1.50;;;17.80;58.50;;;;;;5030952;28;20592;-63
2023/03/24 10:23:17;;;;;;;3.90;1.27;;;17.70;58.60;;;;;;5032055;28;20179;-65
2023/03/24 10:25:50;;;;;;;4.50;1.80;;;17.70;58.60;;;;;;5031451;28;20202;-63
2023/03/24 10:28:22;;;;;;;4.40;2.00;;;17.70;58.60;;;;;;5031105;28;20184;-64
2023/03/24 10:30:49;;;;;;;3.47;1.55;;;17.70;58.60;;;;;;5030605;28;20215;-65
2023/03/24 10:33:15;;;;;;;5.05;1.60;;;17.70;58.70;;;;;;5030751;28;20609;-65
2023/03/24 10:36:08;;;;;;;5.75;2.42;;;17.70;58.40;;;;;;5032716;28;20666;-65
2023/03/24 10:38:33;;;;;;;4.93;1.98;;;17.80;58.30;;;;;;5047436;28;20234;-64
2023/03/24 10:40:59;;;;;;;4.10;2.38;;;17.90;58.00;;;;;;5031269;28;20573;-64
2023/03/24 10:43:24;;;;;;;4.68;1.90;;;17.90;58.00;;;;;;5031372;28;20172;-64
2023/03/24 10:45:54;;;;;;;5.45;1.85;;;17.90;57.90;;;;;;5031105;28;20188;-63
2023/03/24 10:48:43;;;;;;;4.30;1.60;;;18.00;57.80;;;;;;5030478;28;20179;-64
2023/03/24 10:51:16;;;;;;;2.75;1.73;;;18.00;57.70;;;;;;5032035;28;20265;-63
2023/03/24 10:53:46;;;;;;;2.95;1.42;;;18.10;57.60;;;;;;5031116;28;20580;-63
2023/03/24 10:56:15;;;;;;;3.42;1.58;;;18.20;57.50;;;;;;5032221;28;20226;-64
2023/03/24 10:58:41;;;;;;;5.50;1.95;;;18.20;57.30;;;;;;5065384;28;20175;-61
2023/03/24 11:01:19;;;;;;;4.78;1.90;;;18.20;57.30;;;;;;5071141;28;20178;-65
2023/03/24 11:03:46;;;;;;;5.22;1.92;;;18.10;57.40;;;;;;5070348;28;20178;-63
2023/03/24 11:06:12;;;;;;;4.15;1.98;;;18.10;57.60;;;;;;5071096;28;20173;-64
2023/03/24 11:08:38;;;;;;;5.78;2.13;;;18.00;57.70;;;;;;5052838;28;20509;-66
2023/03/24 11:11:33;;;;;;;4.43;1.55;;;17.90;58.00;;;;;;5071571;28;20702;-64
2023/03/24 11:14:02;;;;;;;4.95;2.00;;;17.80;58.10;;;;;;5065676;28;20285;-65
2023/03/24 11:16:35;;;;;;;4.07;2.00;;;17.80;58.10;;;;;;5071764;28;20235;-64
2023/03/24 11:19:05;;;;;;;7.35;2.10;;;17.80;58.10;;;;;;5071595;28;20214;-65
2023/03/24 11:21:34;;;;;;;4.25;1.63;;;17.90;58.00;;;;;;5071342;28;20171;-65
2023/03/24 11:24:13;;;;;;;4.68;1.52;;;17.80;58.00;;;;;;5070435;28;20609;-63
2023/03/24 11:26:39;;;;;;;3.05;1.50;;;17.90;58.00;;;;;;5054871;28;20261;-60
2023/03/24 11:29:13;;;;;;;5.10;2.10;;;17.90;58.00;;;;;;5052843;28;20266;-62
2023/03/24 11:31:39;;;;;;;5.40;1.63;;;17.80;58.10;;;;;;5054264;28;20213;-63
2023/03/24 11:34:18;;;;;;;3.75;1.83;;;17.90;58.20;;;;;;5073011;28;20170;-64
2023/03/24 11:36:57;;;;;;;4.10;1.48;;;17.80;58.10;;;;;;5074485;28;20178;-64
2023/03/24 11:39:24;;;;;;;5.57;1.80;;;17.90;58.20;;;;;;5074271;28;20182;-64
2023/03/24 11:42:11;;;;;;;2.67;1.60;;;17.90;58.10;;;;;;5075302;28;20174;-64
2023/03/24 11:44:51;;;;;;;4.45;1.95;;;17.90;58.10;;;;;;5075262;28;20281;-63
2023/03/24 11:47:29;;;;;;;4.30;1.70;;;17.90;58.00;;;;;;5075390;28;20174;-63
2023/03/24 11:50:10;;;;;;;4.25;1.88;;;17.90;58.00;;;;;;5074500;28;20178;-64
2023/03/24 11:52:56;;;;;;;3.38;1.58;;;18.00;58.00;;;;;;5075077;28;20205;-63
2023/03/24 11:55:34;;;;;;;3.88;1.60;;;18.00;57.80;;;;;;5073895;28;20228;-64
2023/03/24 11:58:16;;;;;;;4.05;1.80;;;18.10;57.60;;;;;;5062445;28;20175;-63
2023/03/24 12:00:54;;;;;;;3.45;1.55;;;18.20;57.50;;;;;;5037728;28;20171;-65
2023/03/24 12:03:34;;;;;;;3.40;1.50;;;18.30;57.50;;;;;;5037093;28;20185;-61
2023/03/24 12:06:23;;;;;;;7.18;1.95;;;18.40;57.40;;;;;;5053825;28;20171;-62
2023/03/24 12:09:07;;;;;;;2.88;1.73;;;18.30;57.80;;;;;;5043461;28;20190;-61
2023/03/24 12:12:02;;;;;;;5.93;1.83;;;18.30;57.90;;;;;;5054076;28;20221;-63
2023/03/24 12:14:47;;;;;;;5.72;1.58;;;18.20;57.90;;;;;;5049641;28;20187;-63
2023/03/24 12:17:14;;;;;;;3.42;1.60;;;18.00;58.00;;;;;;5055020;28;20167;-61
2023/03/24 12:19:49;;;;;;;5.15;1.50;;;17.90;58.10;;;;;;5052940;28;20295;-61
2023/03/24 12:22:23;;;;;;;6.45;1.80;;;17.90;58.40;;;;;;5054802;28;20646;-61
2023/03/24 12:25:07;;;;;;;3.00;1.30;;;17.90;58.50;;;;;;5053722;28;20178;-61
2023/03/24 12:27:45;;;;;;;4.30;1.70;;;17.90;58.50;;;;;;5055076;28;20185;-61
2023/03/24 12:30:29;;;;;;;5.80;1.60;;;17.90;58.50;;;;;;5053812;28;20203;-63
2023/03/24 12:33:00;;;;;;;2.95;1.60;;;17.80;58.40;;;;;;5052378;28;20260;-62
2023/03/24 12:36:10;;;;;;;4.65;1.63;;;17.80;58.40;;;;;;5053482;28;20548;-66
2023/03/24 12:38:39;;;;;;;2.83;1.50;;;17.80;58.50;;;;;;5020076;28;20263;-66
2023/03/24 12:41:22;;;;;;;3.95;1.42;;;17.80;58.40;;;;;;5045498;28;20206;-65
2023/03/24 12:44:07;;;;;;;3.10;1.50;;;17.80;58.50;;;;;;5053025;28;20179;-64
2023/03/24 12:46:41;;;;;;;4.10;1.55;;;17.70;58.60;;;;;;5052334;28;20265;-63
2023/03/24 12:49:37;;;;;;;8.85;2.20;;;17.60;58.70;;;;;;5053350;28;20186;-62
2023/03/24 12:52:13;;;;;;;4.25;1.33;;;17.60;58.80;;;;;;5052768;28;20595;-62
2023/03/24 12:54:46;;;;;;;5.13;1.65;;;17.60;58.80;;;;;;5052700;28;20191;-62
2023/03/24 12:57:13;;;;;;;2.78;1.50;;;17.60;58.80;;;;;;5058576;28;20299;-63
2023/03/24 12:59:40;;;;;;;4.38;1.60;;;17.60;58.70;;;;;;5055768;28;20265;-63
2023/03/24 13:02:26;;;;;;;4.68;1.50;;;17.70;58.60;;;;;;5072677;28;20174;-63
2023/03/24 13:04:53;;;;;;;3.00;1.58;;;17.70;58.40;;;;;;5057614;28;20174;-62
2023/03/24 13:07:24;;;;;;;2.85;1.25;;;17.90;58.20;;;;;;5055939;28;20204;-62